Time;durP1;ratioP1;P1;durP2;ratioP2;P2;SDS_P1;SDS_P2;PMS_P1;PMS_P2;Temp;Humidity;BMP_temperature;BMP_pressure;BME280_temperature;BME280_humidity;BME280_pressure;Samples;Min_cycle;Max_cycle;Signal;HPM_P1;HPM_P2
2022/08/15 00:00:20;;;;;;;3.92;3.40;;;25.60;37.60;;;;;;5016824;28;20080;-42
2022/08/15 00:02:49;;;;;;;10.40;4.38;;;25.70;37.90;;;;;;5024262;28;20060;-44
2022/08/15 00:05:21;;;;;;;5.40;3.92;;;25.60;37.90;;;;;;5023268;28;20060;-46
2022/08/15 00:07:50;;;;;;;4.68;3.30;;;25.60;38.00;;;;;;5022643;28;20045;-42
2022/08/15 00:10:19;;;;;;;4.43;3.60;;;25.60;38.10;;;;;;5022064;28;20120;-43
2022/08/15 00:12:47;;;;;;;4.68;3.88;;;25.60;38.20;;;;;;5019994;28;20068;-48
2022/08/15 00:15:19;;;;;;;5.38;3.20;;;25.60;38.30;;;;;;5022617;28;20512;-43
2022/08/15 00:17:48;;;;;;;5.57;3.60;;;25.60;38.40;;;;;;5021167;28;20065;-42
2022/08/15 00:20:15;;;;;;;4.70;3.10;;;25.50;38.30;;;;;;5018946;28;20987;-42
2022/08/15 00:22:50;;;;;;;3.60;3.30;;;25.50;38.30;;;;;;5020559;28;20068;-42
2022/08/15 00:25:17;;;;;;;6.80;3.45;;;25.50;38.30;;;;;;5022787;28;20054;-44
2022/08/15 00:27:44;;;;;;;4.65;3.53;;;25.50;38.30;;;;;;5020817;28;20412;-42
2022/08/15 00:30:13;;;;;;;5.20;3.72;;;25.50;38.30;;;;;;5019414;28;20049;-43
2022/08/15 00:32:40;;;;;;;4.63;3.70;;;25.50;38.30;;;;;;5021936;28;20053;-47
2022/08/15 00:37:55;;;;;;;4.30;3.60;;;25.50;38.50;;;;;;5022989;28;20511;-46
2022/08/15 00:40:23;;;;;;;4.25;3.50;;;25.40;38.40;;;;;;5018523;28;20061;-46
2022/08/15 00:42:51;;;;;;;3.67;3.30;;;25.40;38.40;;;;;;5021456;28;20050;-46
2022/08/15 00:45:22;;;;;;;3.58;3.28;;;25.40;38.30;;;;;;5022845;28;20069;-44
2022/08/15 00:50:31;;;;;;;8.82;3.13;;;25.40;38.20;;;;;;5020092;28;20409;-44
2022/08/15 00:53:02;;;;;;;5.78;3.20;;;25.40;37.80;;;;;;5021492;28;20469;-45
2022/08/15 00:55:31;;;;;;;3.22;2.88;;;25.30;37.30;;;;;;5021612;28;20057;-45
2022/08/15 00:58:00;;;;;;;3.90;2.85;;;25.30;37.00;;;;;;5021697;28;20054;-43
2022/08/15 01:00:33;;;;;;;4.82;2.95;;;25.30;36.90;;;;;;5019766;28;20489;-46
2022/08/15 01:03:02;;;;;;;4.82;2.50;;;25.30;36.70;;;;;;5019751;28;20440;-43
2022/08/15 01:05:29;;;;;;;2.85;2.55;;;25.30;36.60;;;;;;5006227;28;20049;-45
2022/08/15 01:07:56;;;;;;;2.60;2.40;;;25.30;36.60;;;;;;5022868;28;20508;-43
2022/08/15 01:10:25;;;;;;;3.50;2.63;;;25.30;36.60;;;;;;5021958;28;20065;-44
2022/08/15 01:12:53;;;;;;;4.65;2.60;;;25.30;36.50;;;;;;5021805;28;20057;-46
2022/08/15 01:15:22;;;;;;;2.40;2.20;;;25.30;36.40;;;;;;5022081;28;20511;-42
2022/08/15 01:17:49;;;;;;;4.70;2.58;;;25.30;36.40;;;;;;5022057;28;20064;-44
2022/08/15 01:20:22;;;;;;;4.50;2.80;;;25.30;36.30;;;;;;5019747;28;20058;-45
2022/08/15 01:23:04;;;;;;;3.23;2.40;;;25.30;36.20;;;;;;5025398;28;20088;-44
2022/08/15 01:25:38;;;;;;;8.02;2.80;;;25.30;36.10;;;;;;5020559;28;20065;-43
2022/08/15 01:28:08;;;;;;;2.53;2.30;;;25.40;36.10;;;;;;5017830;28;20060;-44
2022/08/15 01:30:39;;;;;;;3.63;2.75;;;25.40;36.10;;;;;;5017839;28;20500;-43
2022/08/15 01:33:07;;;;;;;3.10;2.45;;;25.40;36.00;;;;;;5018954;28;20481;-42
2022/08/15 01:35:35;;;;;;;3.15;2.75;;;25.40;36.10;;;;;;5022831;28;20125;-44
2022/08/15 01:38:04;;;;;;;3.05;2.78;;;25.40;36.00;;;;;;5017843;28;20056;-46
2022/08/15 01:40:43;;;;;;;3.00;2.70;;;25.40;36.00;;;;;;5012348;28;20072;-45
2022/08/15 01:43:12;;;;;;;3.30;2.45;;;25.40;36.00;;;;;;5021098;28;20049;-41
2022/08/15 01:45:43;;;;;;;2.47;2.28;;;25.40;36.00;;;;;;5017346;28;20432;-43
2022/08/15 01:48:16;;;;;;;4.30;2.47;;;25.40;35.90;;;;;;5022235;28;20041;-41
2022/08/15 01:50:49;;;;;;;2.63;2.17;;;25.40;36.00;;;;;;5018153;28;20501;-42
2022/08/15 01:53:23;;;;;;;3.97;2.70;;;25.50;36.10;;;;;;5021262;28;20056;-45
2022/08/15 01:55:54;;;;;;;3.42;2.67;;;25.50;36.10;;;;;;5021789;28;20076;-44
2022/08/15 01:58:22;;;;;;;5.05;2.30;;;25.50;36.00;;;;;;5018941;28;20053;-43
2022/08/15 02:00:52;;;;;;;3.25;2.55;;;25.50;36.10;;;;;;5015834;28;20056;-43
2022/08/15 02:03:20;;;;;;;2.40;2.20;;;25.50;36.20;;;;;;5021433;28;20057;-41
2022/08/15 02:05:47;;;;;;;3.88;2.50;;;25.50;36.20;;;;;;5020466;28;20489;-42
2022/08/15 02:08:14;;;;;;;2.60;2.13;;;25.50;36.20;;;;;;5020719;28;20049;-43
2022/08/15 02:10:43;;;;;;;4.20;2.45;;;25.50;36.20;;;;;;5017560;28;20133;-44
2022/08/15 02:13:12;;;;;;;3.42;2.40;;;25.50;36.30;;;;;;5021342;28;20049;-43
2022/08/15 02:15:39;;;;;;;4.40;2.30;;;25.50;36.20;;;;;;5018826;28;20041;-43
2022/08/15 02:18:06;;;;;;;5.47;2.97;;;25.50;36.30;;;;;;5018446;28;20057;-43
2022/08/15 02:20:33;;;;;;;3.15;2.45;;;25.50;36.50;;;;;;5019699;28;20057;-43
2022/08/15 02:23:01;;;;;;;7.28;2.50;;;25.50;36.60;;;;;;5020551;28;20068;-41
2022/08/15 02:25:28;;;;;;;10.00;2.80;;;25.50;37.00;;;;;;5021426;28;20642;-46
2022/08/15 02:27:56;;;;;;;3.75;2.65;;;25.50;36.50;;;;;;5019397;28;20049;-43
2022/08/15 02:30:27;;;;;;;2.92;2.28;;;25.50;36.20;;;;;;5016946;28;20057;-45
2022/08/15 02:32:56;;;;;;;3.95;2.65;;;25.60;36.50;;;;;;5022460;28;20060;-47
2022/08/15 02:35:24;;;;;;;5.70;2.40;;;25.60;36.60;;;;;;5021143;28;20061;-45
2022/08/15 02:37:51;;;;;;;4.20;2.50;;;25.60;36.60;;;;;;5022092;28;20072;-47
2022/08/15 02:40:20;;;;;;;2.70;2.20;;;25.60;36.50;;;;;;5020474;28;20057;-45
2022/08/15 02:42:47;;;;;;;4.35;2.40;;;25.60;36.60;;;;;;5020744;28;20412;-44
2022/08/15 02:45:15;;;;;;;4.38;2.10;;;25.60;36.60;;;;;;5020464;28;20072;-47
2022/08/15 02:47:44;;;;;;;2.88;2.13;;;25.60;36.80;;;;;;5019298;28;20064;-44
2022/08/15 02:50:13;;;;;;;3.00;2.70;;;25.60;36.80;;;;;;5018605;28;20048;-44
2022/08/15 02:52:42;;;;;;;3.40;2.20;;;25.60;37.00;;;;;;5020159;28;20132;-45
2022/08/15 02:55:11;;;;;;;3.42;1.98;;;25.70;36.90;;;;;;5020281;28;20054;-47
2022/08/15 02:57:38;;;;;;;4.25;2.13;;;25.60;36.70;;;;;;5019622;28;20064;-46
2022/08/15 03:00:08;;;;;;;4.43;2.13;;;25.70;36.70;;;;;;5016854;28;20079;-44
2022/08/15 03:02:53;;;;;;;4.20;2.17;;;25.70;36.80;;;;;;5019291;28;20068;-46
2022/08/15 03:05:21;;;;;;;7.40;2.30;;;25.70;36.80;;;;;;5021401;28;20366;-45
2022/08/15 03:07:48;;;;;;;5.63;2.47;;;25.70;37.00;;;;;;5018972;28;20054;-47
2022/08/15 03:10:16;;;;;;;3.67;2.20;;;25.70;36.90;;;;;;5017468;28;20393;-45
2022/08/15 03:12:53;;;;;;;2.10;1.83;;;25.70;37.10;;;;;;5019260;28;20057;-46
2022/08/15 03:15:22;;;;;;;8.13;2.13;;;25.70;37.30;;;;;;5019501;28;20057;-46
2022/08/15 03:17:51;;;;;;;3.63;2.17;;;25.70;37.20;;;;;;5021680;28;20432;-44
2022/08/15 03:20:19;;;;;;;3.90;2.40;;;25.70;37.40;;;;;;5018503;28;20056;-45
2022/08/15 03:22:49;;;;;;;4.38;2.03;;;25.70;37.30;;;;;;5019734;28;20068;-46
2022/08/15 03:25:20;;;;;;;5.10;2.80;;;25.70;37.40;;;;;;5020336;28;20049;-48
2022/08/15 03:27:47;;;;;;;2.30;1.80;;;25.70;37.40;;;;;;5016879;28;21034;-46
2022/08/15 03:30:16;;;;;;;5.78;2.08;;;25.70;37.60;;;;;;5016262;28;20678;-45
2022/08/15 03:32:45;;;;;;;4.38;1.90;;;25.70;37.70;;;;;;5021518;28;20054;-47
2022/08/15 03:35:15;;;;;;;3.03;2.15;;;25.70;37.70;;;;;;5020974;28;20053;-44
2022/08/15 03:37:42;;;;;;;5.78;2.30;;;25.70;37.60;;;;;;5021504;28;20836;-45
2022/08/15 03:40:11;;;;;;;2.40;2.10;;;25.70;37.40;;;;;;5018097;28;20056;-45
2022/08/15 03:42:38;;;;;;;3.50;2.35;;;25.70;37.60;;;;;;5016870;28;20049;-45
2022/08/15 03:45:11;;;;;;;3.40;2.13;;;25.70;37.80;;;;;;5017885;28;20528;-45
2022/08/15 03:47:38;;;;;;;3.33;2.28;;;25.70;38.10;;;;;;5018017;28;20045;-45
2022/08/15 03:50:07;;;;;;;5.47;2.33;;;25.70;38.20;;;;;;5014754;28;20469;-47
2022/08/15 03:52:48;;;;;;;4.55;2.00;;;25.70;38.30;;;;;;5017369;28;20337;-44
2022/08/15 03:55:16;;;;;;;2.92;2.13;;;25.70;38.30;;;;;;5018760;28;20060;-45
2022/08/15 03:57:44;;;;;;;2.22;2.03;;;25.70;38.20;;;;;;5017950;28;20500;-46
2022/08/15 04:00:13;;;;;;;7.32;4.35;;;25.70;38.20;;;;;;5014260;28;20049;-46
2022/08/15 04:02:41;;;;;;;13.35;6.82;;;25.70;38.20;;;;;;5015088;28;20069;-45
2022/08/15 04:05:08;;;;;;;8.20;5.22;;;25.70;38.10;;;;;;5019330;28;20058;-47
2022/08/15 04:07:38;;;;;;;10.18;5.15;;;25.70;38.10;;;;;;5015917;28;20428;-44
2022/08/15 04:10:08;;;;;;;6.25;3.80;;;25.70;38.50;;;;;;5017590;28;20057;-48
2022/08/15 04:12:40;;;;;;;3.47;2.50;;;25.70;38.60;;;;;;5015426;28;20057;-46
2022/08/15 04:15:13;;;;;;;5.28;2.53;;;25.70;38.80;;;;;;5016967;28;20045;-48
2022/08/15 04:17:40;;;;;;;3.50;2.17;;;25.70;38.80;;;;;;5012412;28;20064;-49
2022/08/15 04:20:09;;;;;;;2.97;2.13;;;25.70;38.90;;;;;;5015437;28;20049;-48
2022/08/15 04:22:41;;;;;;;3.10;2.15;;;25.70;39.20;;;;;;5017280;28;20045;-45
2022/08/15 04:25:11;;;;;;;3.65;2.25;;;25.70;38.90;;;;;;5016115;28;20156;-47
2022/08/15 04:27:39;;;;;;;2.45;1.83;;;25.70;38.80;;;;;;5020901;28;20084;-44
2022/08/15 04:30:08;;;;;;;2.63;1.90;;;25.60;38.60;;;;;;5017338;28;20060;-46
2022/08/15 04:32:36;;;;;;;3.33;1.98;;;25.60;38.60;;;;;;5022653;28;20050;-48
2022/08/15 04:35:04;;;;;;;5.78;3.47;;;25.60;38.40;;;;;;5002209;28;20065;-45
2022/08/15 04:37:32;;;;;;;4.45;3.25;;;25.60;38.50;;;;;;5019063;28;20516;-46
2022/08/15 04:40:00;;;;;;;6.88;2.40;;;25.60;38.40;;;;;;5015818;28;20508;-46
2022/08/15 04:42:28;;;;;;;3.92;2.08;;;25.60;38.30;;;;;;5014915;28;20060;-46
2022/08/15 04:44:56;;;;;;;7.30;2.10;;;25.60;38.30;;;;;;5009910;28;20061;-46
2022/08/15 04:47:23;;;;;;;4.18;2.28;;;25.60;38.20;;;;;;5012634;28;20520;-47
2022/08/15 04:49:50;;;;;;;3.33;2.00;;;25.60;38.30;;;;;;5016075;28;20057;-47
2022/08/15 04:52:20;;;;;;;5.85;2.15;;;25.60;38.20;;;;;;5011551;28;20413;-48
2022/08/15 04:54:47;;;;;;;4.00;2.03;;;25.60;38.20;;;;;;5024610;28;20049;-46
2022/08/15 04:57:16;;;;;;;4.40;1.92;;;25.60;38.40;;;;;;5025735;28;20495;-46
2022/08/15 04:59:43;;;;;;;22.50;12.68;;;25.60;38.50;;;;;;5023727;28;20050;-43
2022/08/15 05:02:13;;;;;;;7.10;4.70;;;25.60;38.40;;;;;;5026250;28;21305;-44
2022/08/15 05:04:41;;;;;;;4.50;2.63;;;25.60;38.30;;;;;;5025227;28;20509;-47
2022/08/15 05:07:09;;;;;;;3.92;2.22;;;25.60;38.40;;;;;;5025444;28;20079;-44
2022/08/15 05:09:36;;;;;;;7.03;2.30;;;25.60;38.70;;;;;;5024811;28;20077;-44
2022/08/15 05:12:04;;;;;;;2.47;1.80;;;25.60;38.90;;;;;;5024668;28;20496;-44
2022/08/15 05:14:33;;;;;;;3.10;2.05;;;25.60;38.90;;;;;;5023562;28;20061;-47
2022/08/15 05:17:00;;;;;;;2.75;1.92;;;25.60;38.80;;;;;;5023808;28;20068;-46
2022/08/15 05:19:27;;;;;;;3.42;1.90;;;25.60;39.00;;;;;;5014670;28;20062;-45
2022/08/15 05:21:54;;;;;;;6.07;1.83;;;25.60;39.20;;;;;;5009500;28;20058;-45
2022/08/15 05:24:23;;;;;;;4.55;1.50;;;25.70;39.50;;;;;;5009677;28;20079;-46
2022/08/15 05:26:50;;;;;;;2.50;1.65;;;25.60;39.70;;;;;;5012513;28;20061;-45
2022/08/15 05:29:17;;;;;;;9.43;1.90;;;25.70;39.90;;;;;;5007834;28;20049;-46
2022/08/15 05:31:46;;;;;;;2.83;1.80;;;25.70;40.00;;;;;;5012564;28;20057;-46
2022/08/15 05:34:13;;;;;;;4.05;2.15;;;25.70;40.00;;;;;;5008472;28;20053;-47
2022/08/15 05:36:40;;;;;;;2.97;1.90;;;25.70;40.20;;;;;;5014512;28;20049;-46
2022/08/15 05:39:22;;;;;;;4.13;2.17;;;25.70;40.40;;;;;;5008078;28;20053;-46
2022/08/15 05:42:01;;;;;;;4.75;2.58;;;25.70;40.80;;;;;;5013150;28;20054;-45
2022/08/15 05:44:40;;;;;;;3.90;1.95;;;25.70;40.80;;;;;;5019722;28;20393;-44
2022/08/15 05:47:19;;;;;;;6.45;1.70;;;25.70;40.40;;;;;;5020321;28;20062;-47
2022/08/15 05:49:54;;;;;;;4.10;2.03;;;25.70;40.50;;;;;;5022634;28;20416;-45
2022/08/15 05:52:29;;;;;;;8.65;2.88;;;25.70;40.20;;;;;;5020512;28;20773;-48
2022/08/15 05:55:17;;;;;;;4.15;2.00;;;25.70;40.00;;;;;;5021451;28;20058;-48
2022/08/15 05:58:01;;;;;;;3.60;1.95;;;25.70;39.70;;;;;;5021402;28;20056;-45
2022/08/15 06:01:17;;;;;;;4.32;2.00;;;25.70;39.80;;;;;;5020002;28;20056;-47
2022/08/15 06:03:53;;;;;;;3.55;2.42;;;25.70;39.80;;;;;;5017211;28;20053;-46
2022/08/15 06:06:23;;;;;;;3.45;2.38;;;25.70;39.70;;;;;;5019906;28;20068;-45
2022/08/15 06:08:54;;;;;;;3.25;2.42;;;25.70;39.70;;;;;;5021657;28;20100;-46
2022/08/15 06:11:26;;;;;;;4.25;2.53;;;25.70;39.80;;;;;;5017939;28;20060;-45
2022/08/15 06:13:58;;;;;;;5.72;2.50;;;25.60;40.20;;;;;;5018854;28;20056;-47
2022/08/15 06:16:32;;;;;;;5.63;2.50;;;25.70;40.10;;;;;;5022519;28;20057;-44
2022/08/15 06:19:05;;;;;;;5.93;2.35;;;25.60;40.10;;;;;;5021794;28;20049;-47
2022/08/15 06:21:40;;;;;;;6.07;2.57;;;25.70;40.30;;;;;;5018249;28;20053;-48
2022/08/15 06:24:15;;;;;;;5.53;2.42;;;25.70;40.60;;;;;;5019093;28;20053;-44
2022/08/15 06:26:53;;;;;;;4.20;2.50;;;25.70;40.50;;;;;;5018998;28;20057;-45
2022/08/15 06:29:43;;;;;;;8.85;2.33;;;25.70;40.60;;;;;;5020738;28;20050;-46
2022/08/15 06:32:14;;;;;;;5.88;2.60;;;25.70;40.60;;;;;;5018752;28;20071;-45
2022/08/15 06:34:52;;;;;;;6.32;3.22;;;25.70;40.60;;;;;;5018966;28;20053;-46
2022/08/15 06:37:25;;;;;;;4.70;2.97;;;25.80;40.80;;;;;;5017180;28;20072;-46
2022/08/15 06:40:06;;;;;;;6.83;3.30;;;25.80;40.80;;;;;;5015435;28;20061;-47
2022/08/15 06:42:36;;;;;;;5.43;2.88;;;25.90;40.90;;;;;;5020138;28;20503;-47
2022/08/15 06:45:10;;;;;;;6.90;2.83;;;25.90;40.90;;;;;;5016883;28;20084;-44
2022/08/15 06:47:39;;;;;;;5.13;3.13;;;25.90;41.00;;;;;;5019650;28;20790;-47
2022/08/15 06:50:12;;;;;;;6.22;2.95;;;25.90;40.90;;;;;;5015291;28;20493;-50
2022/08/15 06:52:44;;;;;;;7.05;3.20;;;26.00;41.10;;;;;;5017671;28;20053;-49
2022/08/15 06:55:11;;;;;;;6.07;2.88;;;26.00;41.00;;;;;;5019900;28;20057;-45
2022/08/15 06:57:49;;;;;;;5.75;2.60;;;26.10;41.10;;;;;;5018565;28;20060;-46
2022/08/15 07:00:24;;;;;;;4.88;3.10;;;26.10;41.10;;;;;;5015855;28;20045;-46
2022/08/15 07:03:01;;;;;;;5.60;2.80;;;26.10;41.10;;;;;;5020492;28;20062;-47
2022/08/15 07:05:40;;;;;;;6.22;2.83;;;26.10;41.20;;;;;;5019635;28;20049;-46
2022/08/15 07:08:15;;;;;;;5.72;3.20;;;26.20;41.20;;;;;;5018837;28;20057;-49
2022/08/15 07:10:45;;;;;;;6.40;2.67;;;26.20;41.20;;;;;;5019541;28;20057;-45
2022/08/15 07:13:18;;;;;;;7.05;2.63;;;26.20;41.20;;;;;;5017779;28;20056;-46
2022/08/15 07:15:52;;;;;;;5.93;2.58;;;26.20;41.10;;;;;;5017167;28;20072;-45
2022/08/15 07:18:33;;;;;;;4.07;2.42;;;26.20;40.90;;;;;;5018903;28;20057;-47
2022/08/15 07:21:05;;;;;;;3.22;2.25;;;26.20;40.80;;;;;;5016146;28;20053;-44
2022/08/15 07:23:34;;;;;;;5.07;2.70;;;26.20;40.90;;;;;;5018410;28;20053;-45
2022/08/15 07:26:08;;;;;;;3.78;2.88;;;26.20;40.80;;;;;;5019317;28;20049;-47
2022/08/15 07:28:37;;;;;;;3.80;2.78;;;26.20;40.80;;;;;;5017829;28;20057;-47
2022/08/15 07:34:27;;;;;;;3.42;2.10;;;26.20;40.90;;;;;;5021879;28;20044;-47
2022/08/15 07:36:59;;;;;;;2.85;2.40;;;26.20;40.80;;;;;;5020579;28;20053;-45
2022/08/15 07:39:30;;;;;;;4.57;2.80;;;26.20;40.90;;;;;;5020139;28;20057;-45
2022/08/15 07:42:00;;;;;;;5.50;3.47;;;26.20;40.90;;;;;;5023942;28;20382;-44
2022/08/15 07:44:30;;;;;;;5.60;2.70;;;26.20;40.90;;;;;;5017584;28;20049;-46
2022/08/15 07:47:00;;;;;;;3.47;2.80;;;26.20;40.90;;;;;;5017813;28;20049;-46
2022/08/15 07:49:30;;;;;;;5.22;2.40;;;26.20;41.00;;;;;;5018741;28;20057;-46
2022/08/15 07:52:05;;;;;;;6.80;2.28;;;26.20;40.90;;;;;;5018981;28;20046;-46
2022/08/15 07:54:45;;;;;;;4.47;2.10;;;26.20;40.90;;;;;;5020976;28;20049;-44
2022/08/15 07:57:21;;;;;;;2.20;2.00;;;26.20;40.90;;;;;;5022843;28;20053;-47
2022/08/15 08:00:11;;;;;;;8.18;2.53;;;26.20;40.90;;;;;;5021538;28;20057;-47
2022/08/15 08:02:44;;;;;;;3.58;2.30;;;26.20;40.90;;;;;;5021091;28;20057;-44
2022/08/15 08:05:12;;;;;;;3.47;2.28;;;26.20;40.80;;;;;;5020180;28;20053;-44
2022/08/15 08:07:43;;;;;;;6.85;2.10;;;26.20;40.70;;;;;;5017308;28;20065;-45
2022/08/15 08:10:18;;;;;;;2.30;1.90;;;26.20;40.80;;;;;;5018788;28;20053;-46
2022/08/15 08:13:04;;;;;;;3.45;1.90;;;26.20;40.70;;;;;;5021852;28;20053;-45
2022/08/15 08:15:38;;;;;;;4.53;2.40;;;26.10;40.70;;;;;;5022989;28;20060;-45
2022/08/15 08:18:12;;;;;;;2.33;1.90;;;26.20;40.80;;;;;;5026561;28;20077;-45
2022/08/15 08:20:45;;;;;;;6.13;4.13;;;26.10;40.80;;;;;;5025980;28;20050;-47
2022/08/15 08:23:22;;;;;;;3.85;2.75;;;26.10;40.80;;;;;;5025953;28;20053;-48
2022/08/15 08:26:00;;;;;;;5.93;2.25;;;26.10;40.80;;;;;;5026282;28;20521;-49
2022/08/15 08:28:38;;;;;;;5.20;1.88;;;26.10;40.80;;;;;;5025155;28;20064;-47
2022/08/15 08:31:13;;;;;;;3.50;1.98;;;26.10;41.00;;;;;;5025979;28;20049;-45
2022/08/15 08:33:55;;;;;;;2.88;1.80;;;26.10;41.00;;;;;;5025712;28;20416;-45
2022/08/15 08:36:52;;;;;;;3.78;2.20;;;26.10;41.00;;;;;;5025253;28;20053;-47
2022/08/15 08:39:44;;;;;;;3.70;1.95;;;26.10;41.10;;;;;;5024279;28;20064;-45
2022/08/15 08:42:23;;;;;;;3.05;2.05;;;26.10;41.10;;;;;;5016310;28;20049;-45
2022/08/15 08:45:00;;;;;;;4.07;2.42;;;26.10;41.10;;;;;;5017595;28;20061;-47
2022/08/15 08:51:56;;;;;;;3.75;2.17;;;26.10;41.20;;;;;;4926894;29;20753;-48
2022/08/15 08:55:01;;;;;;;4.38;1.80;;;26.20;41.30;;;;;;4903481;28;20449;-49
2022/08/15 08:57:34;;;;;;;4.43;2.03;;;26.20;41.50;;;;;;5016436;28;20061;-46
2022/08/15 09:00:06;;;;;;;2.88;1.70;;;26.20;41.50;;;;;;5020455;28;20064;-46
2022/08/15 09:02:40;;;;;;;3.88;2.90;;;26.20;41.60;;;;;;5019016;28;20049;-46
2022/08/15 09:05:11;;;;;;;2.83;2.30;;;26.30;41.70;;;;;;5020546;28;20060;-48
2022/08/15 09:07:51;;;;;;;6.60;2.38;;;26.40;41.70;;;;;;5018119;28;20060;-46
2022/08/15 09:10:24;;;;;;;5.07;2.17;;;26.40;41.50;;;;;;5019912;28;20053;-49
2022/08/15 09:15:42;;;;;;;5.03;2.38;;;26.50;41.60;;;;;;5024847;28;20060;-45
2022/08/15 09:18:14;;;;;;;3.33;2.10;;;26.60;41.40;;;;;;5019493;28;20053;-46
2022/08/15 09:20:43;;;;;;;3.92;1.90;;;26.60;41.40;;;;;;5019489;28;20053;-49
2022/08/15 09:23:12;;;;;;;9.20;2.60;;;26.60;41.30;;;;;;5020194;28;20663;-45
2022/08/15 09:25:50;;;;;;;3.78;2.20;;;26.70;41.40;;;;;;5014774;28;20057;-46
2022/08/15 09:28:24;;;;;;;6.07;2.05;;;26.70;41.30;;;;;;5020149;28;20053;-45
2022/08/15 09:30:52;;;;;;;;;;;26.70;41.30;;;;;;5013818;28;20046;-49
2022/08/15 09:33:34;;;;;;;4.45;2.25;;;26.80;41.20;;;;;;5018745;28;19924;-48
2022/08/15 09:36:24;;;;;;;2.67;1.98;;;26.90;41.20;;;;;;5015804;28;20049;-49
2022/08/15 09:39:02;;;;;;;6.60;2.30;;;26.90;41.10;;;;;;5016767;28;20056;-48
2022/08/15 09:41:51;;;;;;;2.38;2.13;;;26.90;41.00;;;;;;5015627;28;20374;-48
2022/08/15 09:44:46;;;;;;;6.43;2.25;;;26.90;41.20;;;;;;5020015;28;20078;-45
2022/08/15 09:47:25;;;;;;;3.55;2.03;;;26.90;41.10;;;;;;5012393;28;20057;-45
2022/08/15 09:50:17;;;;;;;3.00;1.85;;;27.00;41.10;;;;;;5018347;28;20223;-49
2022/08/15 09:52:52;;;;;;;3.80;2.28;;;26.90;41.10;;;;;;5021322;28;20060;-45
2022/08/15 09:55:27;;;;;;;3.70;2.30;;;26.90;41.10;;;;;;5019428;28;20061;-45
2022/08/15 09:57:57;;;;;;;4.55;2.13;;;27.00;41.30;;;;;;5020418;28;20053;-47
2022/08/15 10:00:40;;;;;;;5.05;2.10;;;26.90;41.20;;;;;;5017634;28;20505;-51
2022/08/15 10:03:21;;;;;;;2.63;1.67;;;26.90;41.20;;;;;;5017094;28;20049;-47
2022/08/15 10:06:02;;;;;;;3.13;2.10;;;26.90;41.20;;;;;;5019665;28;20057;-48
2022/08/15 10:09:02;;;;;;;2.90;1.73;;;26.90;41.20;;;;;;5020238;28;21180;-47
2022/08/15 10:11:35;;;;;;;3.50;2.10;;;26.80;41.20;;;;;;5017281;28;20053;-47
2022/08/15 10:14:06;;;;;;;2.42;1.70;;;26.80;41.00;;;;;;5017514;28;20045;-47
2022/08/15 10:16:47;;;;;;;2.53;1.60;;;26.80;41.00;;;;;;5018639;28;20481;-44
2022/08/15 10:19:35;;;;;;;2.35;1.80;;;26.70;41.00;;;;;;5018747;28;20046;-45
2022/08/15 10:22:41;;;;;;;2.78;1.75;;;26.70;41.10;;;;;;5019044;28;20046;-48
2022/08/15 10:25:27;;;;;;;2.80;1.90;;;26.70;41.10;;;;;;5006518;28;20056;-48
2022/08/15 10:28:05;;;;;;;3.53;1.70;;;26.70;41.40;;;;;;5018308;28;20053;-47
2022/08/15 10:30:37;;;;;;;2.55;2.05;;;26.60;41.20;;;;;;5013747;28;20053;-46
2022/08/15 10:33:24;;;;;;;4.70;2.10;;;26.60;41.30;;;;;;5019957;28;20549;-46
2022/08/15 10:35:55;;;;;;;3.83;2.05;;;26.50;41.40;;;;;;5017435;28;20137;-46
2022/08/15 10:38:29;;;;;;;4.28;1.85;;;26.50;41.40;;;;;;5020902;28;20424;-45
2022/08/15 10:41:07;;;;;;;2.38;1.60;;;26.50;41.60;;;;;;5017583;28;20057;-45
2022/08/15 10:43:49;;;;;;;4.97;1.85;;;26.40;41.60;;;;;;5017434;28;20053;-47
2022/08/15 10:46:23;;;;;;;2.80;2.00;;;26.40;41.70;;;;;;5019266;28;20417;-47
2022/08/15 10:49:03;;;;;;;3.15;1.60;;;26.40;41.70;;;;;;5021369;28;20049;-44
2022/08/15 10:51:57;;;;;;;3.95;1.65;;;26.40;41.90;;;;;;5014929;28;20065;-45
2022/08/15 10:54:45;;;;;;;3.40;1.83;;;26.40;42.10;;;;;;5013619;28;20536;-45
2022/08/15 10:57:16;;;;;;;4.53;1.90;;;26.30;42.30;;;;;;5022431;28;20049;-47
2022/08/15 10:59:48;;;;;;;3.47;1.70;;;26.20;42.40;;;;;;5019087;28;20060;-51
2022/08/15 11:02:21;;;;;;;2.20;1.65;;;26.20;42.40;;;;;;5021972;28;20045;-46
2022/08/15 11:04:48;;;;;;;2.78;1.77;;;26.20;42.50;;;;;;5022081;28;20053;-48
2022/08/15 11:07:21;;;;;;;2.60;1.70;;;26.20;42.50;;;;;;5020295;28;20056;-46
2022/08/15 11:09:54;;;;;;;2.80;1.63;;;26.10;42.60;;;;;;5020539;28;20049;-45
2022/08/15 11:12:23;;;;;;;2.83;2.03;;;26.00;42.80;;;;;;5018153;28;20507;-47
2022/08/15 11:14:55;;;;;;;2.22;1.60;;;26.10;43.00;;;;;;5014635;28;20053;-48
2022/08/15 11:17:29;;;;;;;2.95;1.98;;;26.10;43.10;;;;;;5017874;28;20055;-48
2022/08/15 11:20:04;;;;;;;2.33;1.88;;;26.10;43.30;;;;;;5013877;28;20061;-45
2022/08/15 11:22:35;;;;;;;2.63;1.90;;;26.00;43.30;;;;;;5015830;28;20045;-50
2022/08/15 11:25:05;;;;;;;3.13;1.75;;;26.00;43.40;;;;;;5016550;28;20053;-47
2022/08/15 11:27:32;;;;;;;3.10;1.60;;;26.10;43.50;;;;;;5012616;28;20053;-46
2022/08/15 11:30:00;;;;;;;2.22;1.60;;;26.00;43.40;;;;;;5020478;28;20046;-45
2022/08/15 11:32:31;;;;;;;3.20;1.75;;;26.10;43.60;;;;;;5022878;28;20054;-52
2022/08/15 11:35:00;;;;;;;2.72;1.92;;;26.10;43.80;;;;;;5004852;28;20084;-47
2022/08/15 11:37:31;;;;;;;2.97;2.20;;;26.10;43.90;;;;;;5022096;28;20061;-48
2022/08/15 11:40:04;;;;;;;4.10;1.98;;;26.10;43.80;;;;;;5018127;28;20488;-46
2022/08/15 11:42:36;;;;;;;4.88;1.70;;;26.10;43.70;;;;;;5019779;28;20048;-47
2022/08/15 11:45:07;;;;;;;3.15;1.90;;;26.10;43.90;;;;;;5017925;28;20057;-51
2022/08/15 11:47:44;;;;;;;2.47;1.70;;;26.20;44.00;;;;;;5021590;28;20045;-47
2022/08/15 11:50:25;;;;;;;2.72;2.03;;;26.20;43.70;;;;;;5022554;28;20053;-48
2022/08/15 11:52:55;;;;;;;3.88;1.85;;;26.20;43.70;;;;;;5025703;28;20057;-47
2022/08/15 11:55:42;;;;;;;2.95;1.85;;;26.20;43.60;;;;;;5026792;28;20062;-48
2022/08/15 11:58:21;;;;;;;3.72;1.67;;;26.20;44.00;;;;;;5025189;28;20053;-48
2022/08/15 12:00:50;;;;;;;2.00;1.67;;;26.20;43.80;;;;;;5024048;28;20063;-49
2022/08/15 12:03:21;;;;;;;2.25;1.70;;;26.30;43.80;;;;;;5025491;28;20405;-51
2022/08/15 12:05:49;;;;;;;4.43;1.80;;;26.20;43.90;;;;;;5026900;28;20065;-50
2022/08/15 12:08:23;;;;;;;2.20;1.58;;;26.30;43.80;;;;;;5022591;28;20053;-48
2022/08/15 12:10:51;;;;;;;3.47;1.50;;;26.30;44.00;;;;;;5024287;28;20053;-47
2022/08/15 12:13:24;;;;;;;3.33;1.88;;;26.40;43.80;;;;;;5021933;28;20056;-47
2022/08/15 12:15:52;;;;;;;1.97;1.60;;;26.40;43.90;;;;;;5021878;28;20056;-45
2022/08/15 12:18:33;;;;;;;2.05;1.70;;;26.40;43.70;;;;;;5024623;28;20057;-47
2022/08/15 12:21:08;;;;;;;2.55;1.65;;;26.40;43.50;;;;;;5023438;28;20409;-49
2022/08/15 12:23:37;;;;;;;2.85;1.85;;;26.40;43.50;;;;;;5023685;28;20630;-49
2022/08/15 12:26:07;;;;;;;2.17;1.77;;;26.40;43.40;;;;;;5025365;28;20132;-49
2022/08/15 12:28:38;;;;;;;2.30;1.73;;;26.40;43.70;;;;;;5020982;28;20053;-47
2022/08/15 12:31:21;;;;;;;2.65;1.52;;;26.50;44.10;;;;;;5018243;28;20056;-49
2022/08/15 12:34:03;;;;;;;1.58;1.40;;;26.40;43.80;;;;;;5018296;28;20050;-47
2022/08/15 12:36:31;;;;;;;4.25;1.70;;;26.50;44.00;;;;;;5015293;28;20056;-47
2022/08/15 12:38:59;;;;;;;2.40;1.90;;;26.50;43.60;;;;;;5019550;28;20501;-45
2022/08/15 12:41:26;;;;;;;2.78;1.67;;;26.50;43.30;;;;;;5015118;28;20056;-46
2022/08/15 12:43:54;;;;;;;2.65;1.58;;;26.50;43.20;;;;;;5020628;28;20516;-47
2022/08/15 12:46:22;;;;;;;3.53;1.92;;;26.60;42.90;;;;;;5023629;28;20056;-48
2022/08/15 12:48:52;;;;;;;3.13;1.52;;;26.60;42.90;;;;;;5022715;28;20064;-48
2022/08/15 12:51:20;;;;;;;2.05;1.63;;;26.70;42.90;;;;;;5019597;28;20437;-47
2022/08/15 12:53:47;;;;;;;3.03;1.77;;;26.70;43.00;;;;;;5020411;28;20049;-48
2022/08/15 12:56:17;;;;;;;3.05;1.63;;;26.70;42.80;;;;;;5019607;28;20057;-48
2022/08/15 12:58:44;;;;;;;5.03;1.67;;;26.70;42.70;;;;;;5016477;28;20049;-48
2022/08/15 13:01:12;;;;;;;3.53;1.63;;;26.80;42.80;;;;;;5018632;28;20045;-50
2022/08/15 13:03:41;;;;;;;6.78;2.05;;;26.70;42.50;;;;;;5018640;28;20053;-47
2022/08/15 13:06:14;;;;;;;5.18;1.70;;;26.80;42.40;;;;;;5017986;28;20428;-46
2022/08/15 13:08:42;;;;;;;6.05;2.05;;;26.80;42.40;;;;;;5016927;28;20064;-46
2022/08/15 13:11:10;;;;;;;1.48;1.35;;;26.80;42.30;;;;;;5019559;28;20532;-45
2022/08/15 13:13:38;;;;;;;5.20;2.20;;;26.90;42.50;;;;;;5016389;28;20053;-47
2022/08/15 13:16:08;;;;;;;2.13;1.83;;;26.90;42.50;;;;;;5022156;28;20057;-46
2022/08/15 13:18:37;;;;;;;4.55;2.00;;;26.90;42.70;;;;;;5021158;28;20053;-46
2022/08/15 13:23:52;;;;;;;3.25;1.88;;;27.00;42.60;;;;;;5020888;28;20065;-48
2022/08/15 13:26:23;;;;;;;2.88;1.38;;;27.10;42.40;;;;;;5009815;28;20061;-49
2022/08/15 13:28:53;;;;;;;5.95;1.88;;;27.10;42.30;;;;;;5011072;28;20069;-48
2022/08/15 13:31:21;;;;;;;2.80;1.75;;;27.10;42.30;;;;;;5010603;28;20509;-50
2022/08/15 13:33:49;;;;;;;3.95;1.90;;;27.10;41.90;;;;;;5014505;28;20060;-46